createdAt,value
2022-08-08T00:01:09.196Z,23.10
2022-08-08T00:03:48.283Z,23.10
2022-08-08T00:06:35.477Z,23.00
2022-08-08T00:09:15.959Z,23.00
2022-08-08T00:12:09.596Z,22.90
2022-08-08T00:14:59.892Z,22.90
2022-08-08T00:17:58.626Z,22.90
2022-08-08T00:20:42.498Z,22.90
2022-08-08T00:23:18.029Z,22.90
2022-08-08T00:25:53.349Z,22.90
2022-08-08T00:28:35.955Z,23.00
2022-08-08T00:32:15.348Z,23.00
2022-08-08T00:34:39.605Z,23.00
2022-08-08T00:37:47.238Z,23.00
2022-08-08T00:41:11.466Z,23.00
2022-08-08T00:44:09.359Z,23.00
2022-08-08T00:47:19.326Z,23.00
2022-08-08T00:50:23.449Z,23.00
2022-08-08T00:53:00.796Z,23.00
2022-08-08T00:56:16.455Z,22.90
2022-08-08T00:59:44.216Z,23.00
2022-08-08T01:03:59.344Z,23.00
2022-08-08T01:06:12.552Z,23.00
2022-08-08T01:09:35.473Z,22.90
2022-08-08T01:12:54.763Z,22.90
2022-08-08T01:15:56.802Z,22.90
2022-08-08T01:19:02.666Z,22.90
2022-08-08T01:22:23.412Z,22.90
2022-08-08T01:25:40.050Z,22.90
2022-08-08T01:28:28.122Z,22.90
2022-08-08T01:32:13.135Z,22.90
2022-08-08T01:35:11.400Z,22.90
2022-08-08T01:38:45.013Z,22.90
2022-08-08T01:41:25.542Z,22.90
2022-08-08T01:44:07.306Z,22.90
2022-08-08T01:46:52.322Z,22.90
2022-08-08T01:49:45.718Z,22.90
2022-08-08T01:53:01.966Z,22.90
2022-08-08T01:56:29.927Z,22.80
2022-08-08T01:58:39.730Z,22.90
2022-08-08T02:01:36.052Z,22.80
2022-08-08T02:04:28.308Z,22.80
2022-08-08T02:07:04.817Z,22.80
2022-08-08T02:10:03.424Z,22.80
2022-08-08T02:12:49.858Z,22.80
2022-08-08T02:15:34.693Z,22.80
2022-08-08T02:18:14.575Z,22.80
2022-08-08T02:21:08.799Z,22.80
2022-08-08T02:23:48.883Z,22.70
2022-08-08T02:26:32.268Z,22.70
2022-08-08T02:29:19.029Z,22.70
2022-08-08T02:32:15.768Z,22.60
2022-08-08T02:35:35.694Z,22.50
2022-08-08T02:38:44.797Z,22.50
2022-08-08T02:42:07.856Z,22.50
2022-08-08T02:45:18.622Z,22.60
2022-08-08T02:48:30.846Z,22.60
2022-08-08T02:51:46.345Z,22.60
2022-08-08T02:55:31.928Z,22.60
2022-08-08T02:58:54.952Z,22.60
2022-08-08T03:02:08.458Z,22.60
2022-08-08T03:05:20.803Z,22.50
2022-08-08T03:08:28.627Z,22.50
2022-08-08T03:12:01.313Z,22.50
2022-08-08T03:15:58.107Z,22.50
2022-08-08T03:18:04.528Z,22.40
2022-08-08T03:20:51.366Z,22.40
2022-08-08T03:23:39.894Z,22.40
2022-08-08T03:26:27.187Z,22.40
2022-08-08T03:29:16.814Z,22.40
2022-08-08T03:32:08.584Z,22.40
2022-08-08T03:34:41.475Z,22.30
2022-08-08T03:37:59.838Z,22.30
2022-08-08T03:40:29.723Z,22.30
2022-08-08T03:43:16.661Z,22.30
2022-08-08T03:46:05.639Z,22.40
2022-08-08T03:49:30.150Z,22.30
2022-08-08T03:51:50.954Z,22.30
2022-08-08T03:54:40.725Z,22.30
2022-08-08T03:58:09.716Z,22.30
2022-08-08T04:00:11.330Z,22.20
2022-08-08T04:02:58.314Z,22.20
2022-08-08T04:05:29.472Z,22.20
2022-08-08T04:08:06.940Z,22.20
2022-08-08T04:10:37.725Z,22.20
2022-08-08T04:13:17.874Z,22.20
2022-08-08T04:15:54.983Z,22.20
2022-08-08T04:18:44.769Z,22.20
2022-08-08T04:21:23.261Z,22.20
2022-08-08T04:24:11.777Z,22.20
2022-08-08T04:26:58.078Z,22.20
2022-08-08T04:29:36.707Z,22.20
2022-08-08T04:32:10.771Z,22.20
2022-08-08T04:34:42.769Z,22.20
2022-08-08T04:37:19.207Z,22.20
2022-08-08T04:40:06.393Z,22.20
2022-08-08T04:42:46.561Z,22.20
2022-08-08T04:45:31.567Z,22.10
2022-08-08T04:48:04.064Z,22.10
2022-08-08T04:50:38.912Z,22.00
2022-08-08T04:54:36.541Z,22.10
2022-08-08T04:56:09.092Z,22.10
2022-08-08T04:58:39.133Z,22.10
2022-08-08T05:01:11.505Z,22.10
2022-08-08T05:04:08.072Z,22.10
2022-08-08T05:06:43.715Z,22.10
2022-08-08T05:09:15.668Z,22.10
2022-08-08T05:11:47.629Z,22.10
2022-08-08T05:14:29.083Z,22.10
2022-08-08T05:17:10.633Z,22.10
2022-08-08T05:20:11.367Z,22.10
2022-08-08T05:22:36.222Z,22.10
2022-08-08T05:25:06.835Z,22.20
2022-08-08T05:27:41.651Z,22.20
2022-08-08T05:30:15.716Z,22.20
2022-08-08T05:32:49.416Z,22.20
2022-08-08T05:35:24.215Z,22.20
2022-08-08T05:38:01.849Z,22.20
2022-08-08T05:40:59.784Z,22.30
2022-08-08T05:43:39.238Z,22.30
2022-08-08T05:46:13.487Z,22.30
2022-08-08T05:48:52.221Z,22.30
2022-08-08T05:51:24.701Z,22.20
2022-08-08T05:54:27.593Z,22.30
2022-08-08T05:56:48.508Z,22.30
2022-08-08T06:00:00.866Z,22.20
2022-08-08T06:02:48.099Z,22.30
2022-08-08T06:05:34.323Z,22.30
2022-08-08T06:08:28.701Z,22.30
2022-08-08T06:11:05.544Z,22.30
2022-08-08T06:13:47.251Z,22.30
2022-08-08T06:16:27.254Z,22.40
2022-08-08T06:19:28.746Z,22.40
2022-08-08T06:22:32.125Z,22.40
2022-08-08T06:24:58.200Z,22.40
2022-08-08T06:27:38.820Z,22.50
2022-08-08T06:30:11.784Z,22.50
2022-08-08T06:32:53.226Z,22.50
2022-08-08T06:36:08.138Z,22.50
2022-08-08T06:38:27.698Z,22.60
2022-08-08T06:41:07.466Z,22.60
2022-08-08T06:43:38.591Z,22.60
2022-08-08T06:46:16.620Z,22.60
2022-08-08T06:48:49.863Z,22.70
2022-08-08T06:51:22.459Z,22.70
2022-08-08T06:53:56.186Z,22.80
2022-08-08T06:56:34.565Z,22.80
2022-08-08T06:59:09.712Z,22.80
2022-08-08T07:02:27.613Z,22.80
2022-08-08T07:04:48.013Z,22.80
2022-08-08T07:07:32.829Z,22.80
2022-08-08T07:10:09.954Z,22.90
2022-08-08T07:12:47.777Z,22.90
2022-08-08T07:16:05.140Z,22.90
2022-08-08T07:18:41.137Z,22.90
2022-08-08T07:21:20.359Z,22.90
2022-08-08T07:24:03.504Z,22.90
2022-08-08T07:26:46.866Z,22.90
2022-08-08T07:30:02.179Z,23.00
2022-08-08T07:32:17.204Z,23.00
2022-08-08T07:35:00.833Z,23.00
2022-08-08T07:37:56.416Z,23.00
2022-08-08T07:40:40.027Z,23.00
2022-08-08T07:43:14.896Z,23.00
2022-08-08T07:46:05.901Z,23.10
2022-08-08T07:48:42.103Z,23.10
2022-08-08T07:51:23.189Z,23.10
2022-08-08T07:54:08.466Z,23.10
2022-08-08T07:56:50.437Z,23.10
2022-08-08T07:59:26.564Z,23.10
2022-08-08T08:02:36.161Z,23.10
2022-08-08T08:05:03.628Z,23.10
2022-08-08T08:10:14.097Z,23.10
2022-08-08T08:12:53.294Z,23.10
2022-08-08T08:15:31.937Z,23.20
2022-08-08T08:18:06.318Z,23.20
2022-08-08T08:20:45.673Z,23.20
2022-08-08T08:23:15.863Z,23.20
2022-08-08T08:25:55.317Z,23.20
2022-08-08T08:28:27.719Z,23.20
2022-08-08T08:31:04.986Z,23.20
2022-08-08T08:33:37.389Z,23.20
2022-08-08T08:36:20.499Z,23.20
2022-08-08T08:38:53.507Z,23.20
2022-08-08T08:41:35.089Z,23.30
2022-08-08T08:44:14.077Z,23.30
2022-08-08T08:46:57.827Z,23.20
2022-08-08T08:49:34.124Z,23.20
2022-08-08T08:52:07.128Z,23.20
2022-08-08T08:54:38.582Z,23.20
2022-08-08T08:57:17.159Z,23.30
2022-08-08T08:59:59.780Z,23.30
2022-08-08T09:02:41.198Z,23.30
2022-08-08T09:05:49.034Z,23.30
2022-08-08T09:08:13.013Z,23.30
2022-08-08T09:10:49.256Z,23.30
2022-08-08T09:13:25.170Z,23.30
2022-08-08T09:16:03.441Z,23.30
2022-08-08T09:18:36.773Z,23.30
2022-08-08T09:22:04.771Z,23.40
2022-08-08T09:23:57.909Z,23.40
2022-08-08T09:26:39.505Z,23.40
2022-08-08T09:29:22.141Z,23.30
2022-08-08T09:32:00.690Z,23.30
2022-08-08T09:34:39.499Z,23.40
2022-08-08T09:37:57.319Z,23.30
2022-08-08T09:40:12.728Z,23.40
2022-08-08T09:42:51.590Z,23.40
2022-08-08T09:46:01.719Z,23.40
2022-08-08T09:48:16.219Z,23.40
2022-08-08T09:50:56.123Z,23.50
2022-08-08T09:53:59.088Z,23.40
2022-08-08T09:56:25.434Z,23.50
2022-08-08T09:59:20.045Z,23.40
2022-08-08T10:02:00.171Z,23.50
2022-08-08T10:04:41.705Z,23.40
2022-08-08T10:07:18.615Z,23.50
2022-08-08T10:10:00.701Z,23.50
2022-08-08T10:12:37.666Z,23.50
2022-08-08T10:15:18.107Z,23.50
2022-08-08T10:18:07.458Z,23.50
2022-08-08T10:20:51.128Z,23.50
2022-08-08T10:23:45.067Z,23.60
2022-08-08T10:26:30.013Z,23.60
2022-08-08T10:29:05.281Z,23.70
2022-08-08T10:31:54.944Z,23.60
2022-08-08T10:34:27.553Z,23.70
2022-08-08T10:36:59.670Z,23.70
2022-08-08T10:39:43.339Z,23.60
2022-08-08T10:42:21.641Z,23.60
2022-08-08T10:45:08.186Z,23.70
2022-08-08T10:50:17.552Z,23.70
2022-08-08T10:52:47.009Z,23.80
2022-08-08T10:55:39.697Z,23.80
2022-08-08T10:58:11.665Z,23.80
2022-08-08T11:00:48.496Z,23.80
2022-08-08T11:03:52.459Z,23.80
2022-08-08T11:06:14.080Z,23.80
2022-08-08T11:08:53.582Z,23.80
2022-08-08T11:11:59.799Z,23.80
2022-08-08T11:14:16.244Z,23.80
2022-08-08T11:16:47.308Z,23.80
2022-08-08T11:19:19.420Z,23.90
2022-08-08T11:21:54.313Z,23.90
2022-08-08T11:24:29.306Z,23.90
2022-08-08T11:27:10.646Z,23.90
2022-08-08T11:30:20.229Z,23.90
2022-08-08T11:32:43.134Z,23.90
2022-08-08T11:35:27.091Z,23.90
2022-08-08T11:38:38.720Z,23.90
2022-08-08T11:40:55.503Z,23.90
2022-08-08T11:43:38.847Z,23.90
2022-08-08T11:46:13.997Z,24.00
2022-08-08T11:48:49.125Z,24.00
2022-08-08T11:51:30.813Z,24.00
2022-08-08T11:54:31.250Z,24.00
2022-08-08T11:57:16.707Z,24.00
2022-08-08T11:59:58.252Z,24.00
2022-08-08T12:02:54.982Z,24.00
2022-08-08T12:05:33.925Z,24.00
2022-08-08T12:08:04.339Z,24.00
2022-08-08T12:10:34.116Z,24.00
2022-08-08T12:13:09.494Z,24.00
2022-08-08T12:15:49.039Z,24.00
2022-08-08T12:18:24.597Z,24.00
2022-08-08T12:20:56.670Z,24.00
2022-08-08T12:23:42.736Z,24.00
2022-08-08T12:26:28.164Z,24.00
2022-08-08T12:29:36.249Z,24.00
2022-08-08T12:32:17.090Z,24.00
2022-08-08T12:34:56.412Z,24.00
2022-08-08T12:37:41.444Z,24.00
2022-08-08T12:40:23.679Z,24.00
2022-08-08T12:42:55.833Z,24.00
2022-08-08T12:45:58.173Z,24.00
2022-08-08T12:48:36.530Z,24.10
2022-08-08T12:51:11.448Z,24.10
2022-08-08T12:53:59.203Z,24.00
2022-08-08T12:56:36.767Z,24.10
2022-08-08T12:59:16.705Z,24.10
2022-08-08T13:01:53.646Z,24.10
2022-08-08T13:04:26.581Z,24.10
2022-08-08T13:07:03.339Z,24.10
2022-08-08T13:10:00.541Z,24.10
2022-08-08T13:12:32.881Z,24.10
2022-08-08T13:15:04.021Z,24.10
2022-08-08T13:18:07.680Z,24.10
2022-08-08T13:20:27.458Z,24.10
2022-08-08T13:25:50.443Z,24.10
2022-08-08T13:28:32.872Z,24.10
2022-08-08T13:31:04.054Z,24.10
2022-08-08T13:33:41.634Z,24.10
2022-08-08T13:36:13.887Z,24.10
2022-08-08T13:38:43.338Z,24.10
2022-08-08T13:41:15.986Z,24.10
2022-08-08T13:43:50.671Z,24.20
2022-08-08T13:46:27.424Z,24.10
2022-08-08T13:50:33.392Z,24.10
2022-08-08T13:52:04.994Z,24.10
2022-08-08T13:54:38.551Z,24.10
2022-08-08T13:57:16.250Z,24.10
2022-08-08T13:59:48.122Z,24.10
2022-08-08T14:02:20.776Z,24.20
2022-08-08T14:04:54.879Z,24.20
2022-08-08T14:07:30.599Z,24.20
2022-08-08T14:10:04.239Z,24.20
2022-08-08T14:12:43.775Z,24.20
2022-08-08T14:15:31.345Z,24.20
2022-08-08T14:18:35.126Z,24.20
2022-08-08T14:21:12.573Z,24.20
2022-08-08T14:24:03.946Z,24.20
2022-08-08T14:26:46.404Z,24.20
2022-08-08T14:29:29.048Z,24.20
2022-08-08T14:32:09.312Z,24.20
2022-08-08T14:34:43.418Z,24.20
2022-08-08T14:37:19.164Z,24.20
2022-08-08T14:40:06.513Z,24.20
2022-08-08T14:42:54.580Z,24.20
2022-08-08T14:45:33.325Z,24.20
2022-08-08T14:48:27.615Z,24.20
2022-08-08T14:51:07.699Z,24.20
2022-08-08T14:53:54.519Z,24.20
2022-08-08T14:56:27.699Z,24.20
2022-08-08T14:58:58.896Z,24.20
2022-08-08T15:01:37.660Z,24.20
2022-08-08T15:04:13.191Z,24.20
2022-08-08T15:06:45.372Z,24.20
2022-08-08T15:09:14.781Z,24.20
2022-08-08T15:11:53.413Z,24.20
2022-08-08T15:14:25.041Z,24.20
2022-08-08T15:16:57.199Z,24.20
2022-08-08T15:19:28.119Z,24.20
2022-08-08T15:21:58.412Z,24.20
2022-08-08T15:24:31.823Z,24.30
2022-08-08T15:27:12.106Z,24.20
2022-08-08T15:29:52.257Z,24.20
2022-08-08T15:32:27.372Z,24.20
2022-08-08T15:35:00.478Z,24.20
2022-08-08T15:37:33.715Z,24.20
2022-08-08T15:40:03.315Z,24.20
2022-08-08T15:42:34.225Z,24.30
2022-08-08T15:45:03.958Z,24.20
2022-08-08T15:47:33.327Z,24.20
2022-08-08T15:50:04.133Z,24.20
2022-08-08T15:52:38.031Z,24.20
2022-08-08T15:55:10.194Z,24.20
2022-08-08T15:57:41.396Z,24.20
2022-08-08T16:00:26.877Z,24.30
2022-08-08T16:02:59.405Z,24.30
2022-08-08T16:05:36.039Z,24.30
2022-08-08T16:08:19.995Z,24.30
2022-08-08T16:13:14.407Z,24.30
2022-08-08T16:13:45.522Z,24.30
2022-08-08T16:16:17.679Z,24.30
2022-08-08T16:18:52.920Z,24.30
2022-08-08T16:21:31.490Z,24.30
2022-08-08T16:24:02.756Z,24.30
2022-08-08T16:26:35.790Z,24.30
2022-08-08T16:29:09.599Z,24.30
2022-08-08T16:31:48.592Z,24.30
2022-08-08T16:34:21.914Z,24.30
2022-08-08T16:36:54.444Z,24.30
2022-08-08T16:39:59.413Z,24.30
2022-08-08T16:42:17.930Z,24.30
2022-08-08T16:44:54.997Z,24.30
2022-08-08T16:47:40.628Z,24.30
2022-08-08T16:50:15.397Z,24.30
2022-08-08T16:55:03.016Z,24.30
2022-08-08T16:55:55.260Z,24.30
2022-08-08T16:58:34.287Z,24.30
2022-08-08T17:01:06.382Z,24.30
2022-08-08T17:04:00.499Z,24.30
2022-08-08T17:06:39.695Z,24.40
2022-08-08T17:09:15.986Z,24.30
2022-08-08T17:11:55.508Z,24.30
2022-08-08T17:14:34.022Z,24.30
2022-08-08T17:17:22.879Z,24.30
2022-08-08T17:19:57.621Z,24.30
2022-08-08T17:22:39.122Z,24.30
2022-08-08T17:25:11.925Z,24.30
2022-08-08T17:27:41.867Z,24.30
2022-08-08T17:30:23.640Z,24.30
2022-08-08T17:34:53.144Z,24.30
2022-08-08T17:35:53.367Z,24.30
2022-08-08T17:38:30.866Z,24.30
2022-08-08T17:41:00.476Z,24.30
2022-08-08T17:43:31.808Z,24.40
2022-08-08T17:46:42.875Z,24.40
2022-08-08T17:49:16.510Z,24.40
2022-08-08T17:51:53.540Z,24.40
2022-08-08T17:54:26.004Z,24.40
2022-08-08T17:56:58.903Z,24.40
2022-08-08T17:59:30.581Z,24.40
2022-08-08T18:02:11.375Z,24.40
2022-08-08T18:04:51.008Z,24.40
2022-08-08T18:08:04.064Z,24.40
2022-08-08T18:10:10.213Z,24.40
2022-08-08T18:12:40.036Z,24.40
2022-08-08T18:15:13.027Z,24.40
2022-08-08T18:18:27.274Z,24.40
2022-08-08T18:20:43.960Z,24.50
2022-08-08T18:23:22.870Z,24.50
2022-08-08T18:25:53.384Z,24.50
2022-08-08T18:28:25.644Z,24.50
2022-08-08T18:30:55.426Z,24.50
2022-08-08T18:34:10.682Z,24.50
2022-08-08T18:36:18.951Z,24.50
2022-08-08T18:38:52.939Z,24.50
2022-08-08T18:41:51.170Z,24.60
2022-08-08T18:44:12.798Z,24.60
2022-08-08T18:46:54.555Z,24.60
2022-08-08T18:49:32.635Z,24.60
2022-08-08T18:52:18.217Z,24.60
2022-08-08T18:54:59.162Z,24.70
2022-08-08T18:57:31.988Z,24.60
2022-08-08T19:00:15.927Z,24.60
2022-08-08T19:02:55.191Z,24.60
2022-08-08T19:05:30.584Z,24.60
2022-08-08T19:08:25.268Z,24.60
2022-08-08T19:11:01.813Z,24.60
2022-08-08T19:13:53.756Z,24.60
2022-08-08T19:16:23.471Z,24.60
2022-08-08T19:19:02.119Z,24.60
2022-08-08T19:21:33.558Z,24.60
2022-08-08T19:24:42.423Z,24.60
2022-08-08T19:27:10.783Z,24.60
2022-08-08T19:29:42.457Z,24.60
2022-08-08T19:32:22.050Z,24.60
2022-08-08T19:34:53.074Z,24.60
2022-08-08T19:37:43.050Z,24.60
2022-08-08T19:40:16.278Z,24.60
2022-08-08T19:42:47.384Z,24.60
2022-08-08T19:45:58.273Z,24.60
2022-08-08T19:48:28.168Z,24.70
2022-08-08T19:50:56.439Z,24.60
2022-08-08T19:53:51.327Z,24.70
2022-08-08T19:56:39.214Z,24.60
2022-08-08T19:59:07.509Z,24.70
2022-08-08T20:02:01.421Z,24.60
2022-08-08T20:04:27.227Z,24.60
2022-08-08T20:06:56.883Z,24.60
2022-08-08T20:09:29.990Z,24.50
2022-08-08T20:12:03.516Z,24.50
2022-08-08T20:14:42.176Z,24.50
2022-08-08T20:17:21.765Z,24.50
2022-08-08T20:19:57.633Z,24.40
2022-08-08T20:22:30.831Z,24.50
2022-08-08T20:25:02.219Z,24.50
2022-08-08T20:27:43.791Z,24.40
2022-08-08T20:30:41.875Z,24.50
2022-08-08T20:33:19.768Z,24.50
2022-08-08T20:35:57.160Z,24.50
2022-08-08T20:38:32.800Z,24.50
2022-08-08T20:41:05.984Z,24.50
2022-08-08T20:43:50.219Z,24.50
2022-08-08T20:46:21.174Z,24.50
2022-08-08T20:48:58.344Z,24.40
2022-08-08T20:51:31.533Z,24.40
2022-08-08T20:54:10.494Z,24.40
2022-08-08T20:57:04.558Z,24.40
2022-08-08T20:59:41.009Z,24.30
2022-08-08T21:02:12.865Z,24.30
2022-08-08T21:04:50.108Z,24.30
2022-08-08T21:07:47.839Z,24.30
2022-08-08T21:10:12.630Z,24.20
2022-08-08T21:12:44.595Z,24.20
2022-08-08T21:16:05.545Z,24.20
2022-08-08T21:18:07.951Z,24.20
2022-08-08T21:20:37.772Z,24.10
2022-08-08T21:23:09.431Z,24.10
2022-08-08T21:25:38.995Z,24.10
2022-08-08T21:28:15.060Z,24.00
2022-08-08T21:30:52.055Z,24.10
2022-08-08T21:33:22.147Z,24.00
2022-08-08T21:36:16.839Z,24.00
2022-08-08T21:38:40.762Z,24.00
2022-08-08T21:41:10.073Z,24.00
2022-08-08T21:43:58.332Z,24.00
2022-08-08T21:48:08.717Z,23.90
2022-08-08T21:49:18.351Z,23.90
2022-08-08T21:54:32.948Z,23.80
2022-08-08T21:54:54.897Z,23.80
2022-08-08T21:57:27.458Z,23.80
2022-08-08T22:00:03.950Z,23.70
2022-08-08T22:02:44.680Z,23.70
2022-08-08T22:05:15.440Z,23.70
2022-08-08T22:07:48.070Z,23.70
2022-08-08T22:10:28.587Z,23.70
2022-08-08T22:13:17.896Z,23.70
2022-08-08T22:15:59.546Z,23.70
2022-08-08T22:18:33.995Z,23.60
2022-08-08T22:21:13.829Z,23.60
2022-08-08T22:23:50.809Z,23.60
2022-08-08T22:26:28.684Z,23.60
2022-08-08T22:29:14.174Z,23.60
2022-08-08T22:32:01.692Z,23.50
2022-08-08T22:34:39.478Z,23.50
2022-08-08T22:37:27.525Z,23.50
2022-08-08T22:40:01.088Z,23.50
2022-08-08T22:42:34.607Z,23.50
2022-08-08T22:45:12.323Z,23.50
2022-08-08T22:47:48.995Z,23.50
2022-08-08T22:50:27.164Z,23.40
2022-08-08T22:54:17.070Z,23.40
2022-08-08T22:55:59.827Z,23.40
2022-08-08T22:58:33.134Z,23.40
2022-08-08T23:02:00.764Z,23.40
2022-08-08T23:03:55.550Z,23.30
2022-08-08T23:06:27.607Z,23.30
2022-08-08T23:09:00.222Z,23.30
2022-08-08T23:12:18.877Z,23.30
2022-08-08T23:14:22.065Z,23.20
2022-08-08T23:16:59.686Z,23.20
2022-08-08T23:19:32.374Z,23.10
2022-08-08T23:22:04.562Z,23.10
2022-08-08T23:24:36.596Z,23.10
2022-08-08T23:27:11.246Z,23.10
2022-08-08T23:29:56.018Z,23.00
2022-08-08T23:32:29.713Z,23.00
2022-08-08T23:34:59.599Z,23.00
2022-08-08T23:38:02.307Z,23.00
2022-08-08T23:40:22.154Z,23.00
2022-08-08T23:42:52.148Z,23.00
2022-08-08T23:48:59.779Z,22.90
2022-08-08T23:49:05.463Z,23.00
2022-08-08T23:51:00.872Z,22.90
2022-08-08T23:54:05.003Z,22.90
2022-08-08T23:56:23.800Z,22.90
2022-08-08T23:59:02.475Z,22.90
